createdAt,value
2019-05-18T00:02:46.710Z,36.67
2019-05-18T00:07:53.808Z,32.83
2019-05-18T00:13:01.324Z,38.03
2019-05-18T00:18:08.692Z,34.07
2019-05-18T00:23:16.400Z,34.65
2019-05-18T00:28:23.867Z,35.23
2019-05-18T00:33:31.206Z,33.17
2019-05-18T00:38:38.475Z,37.07
2019-05-18T00:43:45.643Z,33.10
2019-05-18T00:48:52.751Z,38.23
2019-05-18T00:53:59.846Z,37.23
2019-05-18T00:59:06.966Z,36.10
2019-05-18T01:04:14.043Z,36.33
2019-05-18T01:09:21.142Z,31.90
2019-05-18T01:14:28.308Z,31.97
2019-05-18T01:19:35.396Z,33.80
2019-05-18T01:24:42.489Z,31.77
2019-05-18T01:29:49.726Z,33.80
2019-05-18T01:34:57.912Z,33.17
2019-05-18T01:40:06.447Z,35.97
2019-05-18T01:45:17.161Z,31.33
2019-05-18T01:50:22.713Z,33.40
2019-05-18T01:55:29.963Z,34.83
2019-05-18T02:00:37.147Z,35.47
2019-05-18T02:05:44.540Z,35.37
2019-05-18T02:10:51.851Z,35.97
2019-05-18T02:15:59.581Z,34.80
2019-05-18T02:21:06.669Z,32.87
2019-05-18T02:26:13.985Z,30.53
2019-05-18T02:31:21.169Z,30.60
2019-05-18T02:36:28.229Z,33.83
2019-05-18T02:41:35.640Z,31.60
2019-05-18T02:46:42.853Z,31.97
2019-05-18T02:51:49.937Z,32.70
2019-05-18T02:56:57.123Z,29.97
2019-05-18T03:02:04.295Z,35.83
2019-05-18T03:07:11.380Z,35.83
2019-05-18T03:12:18.942Z,38.50
2019-05-18T03:17:26.412Z,37.17
2019-05-18T03:22:33.996Z,37.40
2019-05-18T03:27:41.083Z,34.83
2019-05-18T03:32:48.152Z,31.63
2019-05-18T03:37:56.541Z,31.45
2019-05-18T03:43:03.628Z,30.77
2019-05-18T03:48:10.806Z,28.87
2019-05-18T03:53:18.533Z,31.48
2019-05-18T03:58:26.892Z,30.77
2019-05-18T04:03:34.214Z,28.23
2019-05-18T04:08:41.323Z,27.27
2019-05-18T04:13:48.515Z,27.73
2019-05-18T04:18:55.581Z,31.57
2019-05-18T04:24:03.093Z,27.00
2019-05-18T04:29:11.186Z,26.93
2019-05-18T04:34:18.395Z,26.50
2019-05-18T04:39:25.876Z,22.97
2019-05-18T04:44:32.948Z,23.43
2019-05-18T04:49:40.042Z,24.63
2019-05-18T04:54:47.204Z,22.83
2019-05-18T04:59:54.298Z,26.40
2019-05-18T05:05:01.581Z,24.37
2019-05-18T05:10:10.619Z,23.47
2019-05-18T05:15:17.745Z,21.47
2019-05-18T05:20:25.024Z,25.00
2019-05-18T05:25:32.109Z,27.83
2019-05-18T05:30:39.249Z,26.43
2019-05-18T05:35:46.662Z,24.77
2019-05-18T05:40:53.934Z,24.30
2019-05-18T05:46:01.787Z,20.83
2019-05-18T05:51:09.453Z,23.73
2019-05-18T05:56:16.688Z,24.10
2019-05-18T06:01:23.793Z,22.32
2019-05-18T06:06:31.045Z,24.70
2019-05-18T06:11:38.767Z,21.30
2019-05-18T06:16:45.931Z,21.67
2019-05-18T06:21:53.690Z,21.40
2019-05-18T06:27:01.841Z,22.20
2019-05-18T06:32:09.085Z,22.83
2019-05-18T06:37:16.289Z,24.50
2019-05-18T06:42:23.609Z,20.97
2019-05-18T06:47:30.848Z,20.83
2019-05-18T06:52:38.263Z,21.03
2019-05-18T06:57:46.374Z,19.97
2019-05-18T07:02:53.447Z,19.10
2019-05-18T07:08:00.564Z,17.70
2019-05-18T07:13:08.462Z,24.20
2019-05-18T07:18:21.570Z,16.67
2019-05-18T07:23:43.955Z,15.40
2019-05-18T07:29:20.998Z,13.70
2019-05-18T07:34:39.349Z,12.93
2019-05-18T07:40:07.228Z,10.83
2019-05-18T07:45:25.194Z,10.47
2019-05-18T07:50:32.457Z,10.23
2019-05-18T07:55:40.881Z,10.27
2019-05-18T08:00:48.007Z,9.03
2019-05-18T08:05:55.533Z,8.97
2019-05-18T08:11:02.666Z,7.50
2019-05-18T08:16:09.800Z,8.30
2019-05-18T08:21:16.944Z,7.40
2019-05-18T08:26:24.098Z,6.73
2019-05-18T08:31:31.209Z,7.67
2019-05-18T08:36:38.517Z,7.10
2019-05-18T08:41:48.609Z,7.67
2019-05-18T08:46:54.517Z,7.50
2019-05-18T08:52:08.252Z,7.53
2019-05-18T08:57:10.401Z,8.17
2019-05-18T09:02:17.775Z,8.20
2019-05-18T09:07:24.943Z,7.00
2019-05-18T09:12:32.507Z,6.67
2019-05-18T09:17:39.732Z,7.00
2019-05-18T09:22:46.919Z,8.43
2019-05-18T09:27:54.130Z,7.77
2019-05-18T09:33:01.308Z,9.43
2019-05-18T09:38:08.412Z,10.80
2019-05-18T09:43:15.572Z,10.17
2019-05-18T09:48:22.697Z,9.23
2019-05-18T09:53:30.570Z,10.17
2019-05-18T09:58:37.746Z,12.93
2019-05-18T10:03:44.844Z,13.17
2019-05-18T10:08:54.715Z,12.30
2019-05-18T10:14:02.042Z,13.27
2019-05-18T10:19:09.543Z,13.90
2019-05-18T10:24:16.733Z,12.80
2019-05-18T10:29:23.895Z,13.48
2019-05-18T10:34:31.294Z,14.37
2019-05-18T10:39:38.888Z,12.70
2019-05-18T10:44:47.237Z,15.00
2019-05-18T10:49:54.544Z,17.20
2019-05-18T10:55:01.736Z,22.70
2019-05-18T11:00:10.928Z,10.03
2019-05-18T11:05:18.435Z,6.25
2019-05-18T11:10:25.807Z,7.53
2019-05-18T11:15:33.181Z,9.20
2019-05-18T11:20:40.291Z,11.77
2019-05-18T11:25:47.508Z,10.90
2019-05-18T11:30:54.653Z,8.00
2019-05-18T11:36:01.818Z,8.10
2019-05-18T11:41:08.938Z,10.40
2019-05-18T11:46:16.345Z,11.83
2019-05-18T11:51:23.587Z,10.63
2019-05-18T11:56:30.775Z,9.93
2019-05-18T12:01:38.065Z,8.57
2019-05-18T12:06:46.398Z,9.00
2019-05-18T12:11:53.608Z,9.70
2019-05-18T12:17:01.524Z,9.87
2019-05-18T12:22:09.885Z,8.70
2019-05-18T12:27:17.058Z,8.57
2019-05-18T12:32:24.284Z,7.87
2019-05-18T12:37:32.475Z,8.43
2019-05-18T12:42:39.652Z,9.27
2019-05-18T12:47:46.822Z,8.10
2019-05-18T12:52:54.001Z,8.60
2019-05-18T12:58:01.131Z,6.83
2019-05-18T13:03:08.186Z,6.10
2019-05-18T13:08:15.377Z,5.67
2019-05-18T13:13:22.470Z,5.77
2019-05-18T13:18:29.982Z,6.00
2019-05-18T13:23:37.517Z,6.47
2019-05-18T13:28:44.632Z,5.27
2019-05-18T13:33:52.019Z,7.10
2019-05-18T13:38:59.208Z,5.47
2019-05-18T13:44:06.508Z,5.78
2019-05-18T13:49:13.878Z,3.95
2019-05-18T13:54:21.184Z,4.95
2019-05-18T13:59:28.316Z,4.90
2019-05-18T14:04:35.378Z,5.60
2019-05-18T14:09:43.087Z,6.08
2019-05-18T14:14:50.374Z,6.28
2019-05-18T14:19:57.473Z,6.37
2019-05-18T14:25:18.245Z,4.70
2019-05-18T14:30:13.881Z,5.17
2019-05-18T14:35:21.139Z,10.30
2019-05-18T14:40:28.443Z,7.00
2019-05-18T14:45:35.519Z,5.50
2019-05-18T14:50:42.723Z,6.07
2019-05-18T14:55:49.926Z,5.97
2019-05-18T15:00:57.020Z,4.20
2019-05-18T15:06:04.085Z,4.17
2019-05-18T15:11:11.287Z,3.85
2019-05-18T15:16:18.400Z,9.90
2019-05-18T15:21:25.935Z,7.12
2019-05-18T15:26:33.037Z,5.50
2019-05-18T15:31:40.156Z,5.50
2019-05-18T15:36:47.671Z,7.58
2019-05-18T15:41:54.855Z,6.83
2019-05-18T15:47:01.953Z,9.45
2019-05-18T15:52:09.149Z,13.70
2019-05-18T15:57:16.392Z,15.37
2019-05-18T16:02:23.583Z,14.53
2019-05-18T16:07:30.875Z,10.53
2019-05-18T16:12:37.997Z,12.53
2019-05-18T16:17:45.220Z,9.43
2019-05-18T16:22:52.396Z,9.15
2019-05-18T16:28:00.183Z,9.00
2019-05-18T16:33:08.188Z,7.87
2019-05-18T16:38:16.565Z,11.70
2019-05-18T16:43:23.837Z,13.00
2019-05-18T16:48:31.136Z,18.67
2019-05-18T16:53:38.212Z,12.03
2019-05-18T16:58:47.344Z,9.60
2019-05-18T17:03:54.607Z,11.90
2019-05-18T17:09:01.955Z,11.17
2019-05-18T17:14:10.982Z,10.55
2019-05-18T17:19:20.143Z,14.67
2019-05-18T17:24:27.555Z,11.23
2019-05-18T17:29:34.828Z,10.80
2019-05-18T17:34:42.047Z,49.43
2019-05-18T17:39:49.628Z,16.77
2019-05-18T17:44:56.783Z,12.77
2019-05-18T17:50:04.144Z,10.53
2019-05-18T17:55:11.652Z,16.48
2019-05-18T18:00:19.060Z,17.13
2019-05-18T18:05:26.107Z,16.43
2019-05-18T18:10:33.493Z,21.87
2019-05-18T18:15:40.691Z,19.17
2019-05-18T18:20:48.802Z,22.63
2019-05-18T18:25:56.762Z,22.90
2019-05-18T18:31:05.395Z,27.40
2019-05-18T18:36:12.544Z,19.55
2019-05-18T18:41:19.967Z,24.27
2019-05-18T18:46:27.168Z,19.57
2019-05-18T18:51:34.352Z,25.33
2019-05-18T18:56:41.445Z,22.63
2019-05-18T19:01:48.638Z,19.07
2019-05-18T19:06:55.932Z,16.50
2019-05-18T19:12:03.113Z,15.80
2019-05-18T19:17:10.430Z,17.00
2019-05-18T19:22:18.648Z,21.10
2019-05-18T19:27:25.855Z,30.43
2019-05-18T19:32:33.117Z,33.50
2019-05-18T19:37:40.217Z,30.43
2019-05-18T19:42:47.433Z,22.63
2019-05-18T19:47:54.515Z,27.17
2019-05-18T19:53:01.653Z,28.80
2019-05-18T19:58:09.442Z,36.50
2019-05-18T20:03:16.628Z,38.97
2019-05-18T20:08:23.845Z,89.00
2019-05-18T20:13:30.989Z,58.27
2019-05-18T20:18:38.561Z,36.73
2019-05-18T20:23:46.313Z,31.80
2019-05-18T20:28:56.465Z,27.37
2019-05-18T20:34:02.343Z,23.30
2019-05-18T20:39:09.428Z,24.40
2019-05-18T20:44:16.542Z,23.50
2019-05-18T20:49:24.079Z,22.73
2019-05-18T20:54:31.308Z,36.67
2019-05-18T20:59:38.648Z,49.80
2019-05-18T21:04:45.885Z,60.47
2019-05-18T21:09:53.102Z,57.43
2019-05-18T21:15:00.163Z,44.07
2019-05-18T21:20:07.846Z,54.10
2019-05-18T21:25:14.936Z,47.27
2019-05-18T21:30:22.020Z,44.58
2019-05-18T21:35:29.216Z,37.77
2019-05-18T21:40:36.413Z,28.20
2019-05-18T21:45:43.590Z,24.27
2019-05-18T21:50:50.686Z,22.27
2019-05-18T21:55:58.502Z,23.80
2019-05-18T22:01:06.934Z,27.20
2019-05-18T22:06:14.650Z,30.48
2019-05-18T22:11:21.711Z,43.17
2019-05-18T22:16:28.810Z,38.13
2019-05-18T22:21:35.910Z,37.37
2019-05-18T22:26:43.020Z,34.80
2019-05-18T22:31:50.133Z,31.70
2019-05-18T22:36:57.223Z,29.97
2019-05-18T22:42:04.297Z,26.73
2019-05-18T22:47:11.953Z,24.43
2019-05-18T22:52:18.933Z,25.08
2019-05-18T22:57:26.133Z,26.63
2019-05-18T23:02:33.509Z,26.17
2019-05-18T23:07:40.607Z,25.00
2019-05-18T23:12:47.712Z,27.00
2019-05-18T23:17:54.856Z,25.87
2019-05-18T23:23:02.033Z,22.93
2019-05-18T23:28:09.232Z,23.57
2019-05-18T23:33:16.297Z,22.13
2019-05-18T23:38:24.402Z,24.73
2019-05-18T23:43:31.527Z,20.57
2019-05-18T23:48:38.583Z,22.80
2019-05-18T23:53:45.851Z,19.63
2019-05-18T23:58:52.924Z,19.10
